Weather at Quempiri Airfield

Public forecast

Using degrees Celsius for public forecast. Weather courtesy of forecast.io.

Closest aviation weather report (METAR) to Quempiri Airfield

Report is more than 6 hours old.

Closest report is Mayor PNP Nancy Flores Paucar Airport, 49.2 nm (91.1 km) NW. Retrieved 2021/01/06 22:10 UTC (20 days ago):

SPMF 062210Z 34013KT 1500 +SHRA BKN025TCU OVC080 24/22 Q1011

Closest aviation forecast (TAF) to Quempiri Airfield

Forecast is more than 12 hours old.

Closest forecast is Mayor PNP Nancy Flores Paucar Airport, 49.2 nm (91.1 km) NW. Retrieved 2020/11/29 12:00 UTC (2 months ago):

TAF SPMF 291300Z 2912/3012 23005KT 9999 SCT030 BKN080 TX32/2919Z TN20/3011Z